Hovedside
METAR-TAF:

METAR-TAF

Lufthavner :

Teheran, Iran

breddegrad: 35-41N, lengdegrad: 051-21E, høyde over havet: 1204 m

Gjeldene værobservasjon

Denne rapporten ble laget for 17 minutter siden, klokken 04:00 UTC
Vind 4 kt fra Vest
Temperatur 16°C
Luftfuktighet 39%
Trykk 1019 hPa
Sikt 10 km eller mer
ingen skyer under 1500 m og ingen bygeskyer

METAR: OIII 240400Z 26004KT CAVOK 16/02 Q1019 A3009 NOSIG

Tid: 07:47 (04:17 UTC)

Varsel

Denne rapporten ble laget for 5 timer og 17 minutter siden, klokken 23:00 UTC
Varsel gyldig fra 24. klokken 00 UTC til 25. klokken 06 UTC
Vind 8 kt fra Vest-nordvest
Få skyer i en høyde av 4000 ft
Spredte skyer i en høyde av 10000 ft
Midlertidig
fra 24. klokken 08 UTC til 24. klokken 14 UTC
Vind 21 kt fra Vest

TAF: OIII 232300Z 2400/2506 30004MPS FEW040 SCT100 TEMPO 2408/2414 28011MPS

Værobservasjoner og værvarsel for over 4000 flyplasser (METAR- og TAF-rapporter).

Tilgjengelige stasjoner er representert av de røde og gule prikkene på kartet.

Hold musepekeren over prikken for å se navnet på stasjonen.

Klikk så for å se værobservasjoner og -varsler.

For å forandre kartet kan du klikke på den grønne knappen med svart kryss for å zoome inn, på den grønne knappen med strek for å zoome ut, eller på de grønne pilene for å se tilstøtende kart.


METAR-TAF: